createdAt,value
2022-08-24T00:02:24.990Z,1.02
2022-08-24T00:04:52.751Z,1.63
2022-08-24T00:07:27.908Z,1.55
2022-08-24T00:09:55.588Z,0.80
2022-08-24T00:12:22.370Z,1.30
2022-08-24T00:14:49.395Z,1.10
2022-08-24T00:17:17.117Z,1.08
2022-08-24T00:19:43.848Z,1.38
2022-08-24T00:22:10.640Z,1.75
2022-08-24T00:24:37.408Z,1.27
2022-08-24T00:27:04.548Z,1.05
2022-08-24T00:29:31.184Z,0.98
2022-08-24T00:31:57.778Z,0.85
2022-08-24T00:34:25.623Z,1.08
2022-08-24T00:36:53.501Z,1.48
2022-08-24T00:39:20.424Z,1.92
2022-08-24T00:41:50.173Z,2.00
2022-08-24T00:44:18.323Z,1.10
2022-08-24T00:46:44.814Z,0.90
2022-08-24T00:49:23.509Z,1.10
2022-08-24T00:52:00.014Z,1.08
2022-08-24T00:54:33.312Z,0.90
2022-08-24T00:57:04.167Z,1.77
2022-08-24T00:59:36.266Z,1.00
2022-08-24T01:02:15.541Z,1.45
2022-08-24T01:04:56.527Z,0.70
2022-08-24T01:07:29.014Z,1.95
2022-08-24T01:10:00.072Z,1.13
2022-08-24T01:12:29.483Z,1.05
2022-08-24T01:14:57.981Z,0.73
2022-08-24T01:17:43.839Z,1.15
2022-08-24T01:20:11.091Z,0.75
2022-08-24T01:22:53.520Z,1.00
2022-08-24T01:25:21.637Z,1.50
2022-08-24T01:27:50.335Z,1.13
2022-08-24T01:30:18.066Z,1.52
2022-08-24T01:33:06.629Z,2.15
2022-08-24T01:35:34.149Z,1.67
2022-08-24T01:38:03.798Z,1.17
2022-08-24T01:40:37.025Z,0.85
2022-08-24T01:43:06.376Z,1.48
2022-08-24T01:45:33.421Z,0.85
2022-08-24T01:48:01.060Z,0.80
2022-08-24T01:50:28.480Z,1.10
2022-08-24T01:53:05.233Z,1.42
2022-08-24T01:55:32.661Z,0.95
2022-08-24T01:57:59.322Z,1.08
2022-08-24T02:00:26.696Z,1.27
2022-08-24T02:02:53.521Z,1.05
2022-08-24T02:05:20.129Z,0.98
2022-08-24T02:07:46.827Z,1.40
2022-08-24T02:10:15.431Z,0.85
2022-08-24T02:12:43.973Z,0.90
2022-08-24T02:15:11.511Z,1.00
2022-08-24T02:17:38.926Z,0.95
2022-08-24T02:20:06.880Z,1.13
2022-08-24T02:22:33.551Z,0.90
2022-08-24T02:25:00.030Z,1.35
2022-08-24T02:27:26.565Z,1.08
2022-08-24T02:29:53.455Z,0.70
2022-08-24T02:32:20.263Z,1.35
2022-08-24T02:34:46.731Z,0.95
2022-08-24T02:37:13.230Z,0.80
2022-08-24T02:39:39.893Z,1.20
2022-08-24T02:42:06.717Z,1.00
2022-08-24T02:44:33.721Z,0.95
2022-08-24T02:47:00.676Z,1.05
2022-08-24T02:49:27.660Z,0.95
2022-08-24T02:51:54.158Z,0.80
2022-08-24T02:54:21.272Z,0.80
2022-08-24T02:56:48.551Z,1.00
2022-08-24T02:59:16.276Z,1.45
2022-08-24T03:01:43.895Z,1.45
2022-08-24T03:04:12.041Z,1.25
2022-08-24T03:06:38.975Z,1.08
2022-08-24T03:09:05.584Z,1.10
2022-08-24T03:11:32.119Z,0.77
2022-08-24T03:13:59.378Z,0.70
2022-08-24T03:16:30.086Z,1.35
2022-08-24T03:18:56.720Z,1.48
2022-08-24T03:21:23.742Z,1.08
2022-08-24T03:23:50.318Z,0.80
2022-08-24T03:26:16.903Z,1.05
2022-08-24T03:28:44.661Z,0.70
2022-08-24T03:31:11.780Z,0.70
2022-08-24T03:33:38.391Z,0.95
2022-08-24T03:36:05.033Z,1.80
2022-08-24T03:38:31.645Z,0.73
2022-08-24T03:40:58.238Z,1.58
2022-08-24T03:43:43.564Z,0.82
2022-08-24T03:46:12.034Z,0.82
2022-08-24T03:48:44.334Z,1.83
2022-08-24T03:51:13.868Z,0.85
2022-08-24T03:53:42.978Z,1.92
2022-08-24T03:56:10.733Z,1.85
2022-08-24T03:58:39.400Z,1.02
2022-08-24T04:01:06.441Z,1.45
2022-08-24T04:03:42.117Z,1.77
2022-08-24T04:06:11.924Z,2.03
2022-08-24T04:08:39.439Z,2.20
2022-08-24T04:11:09.458Z,1.35
2022-08-24T04:13:36.091Z,1.02
2022-08-24T04:16:10.769Z,1.85
2022-08-24T04:18:37.374Z,2.10
2022-08-24T04:21:04.838Z,1.42
2022-08-24T04:23:47.185Z,1.98
2022-08-24T04:26:16.440Z,1.67
2022-08-24T04:28:55.444Z,1.35
2022-08-24T04:31:22.803Z,1.85
2022-08-24T04:33:55.025Z,6.47
2022-08-24T04:36:23.123Z,1.48
2022-08-24T04:38:50.698Z,4.38
2022-08-24T04:41:27.972Z,2.00
2022-08-24T04:43:59.342Z,2.97
2022-08-24T04:46:26.522Z,3.78
2022-08-24T04:48:53.078Z,1.83
2022-08-24T04:51:20.986Z,2.38
2022-08-24T04:53:48.976Z,2.80
2022-08-24T04:56:20.152Z,3.28
2022-08-24T04:58:47.205Z,3.47
2022-08-24T05:01:18.317Z,4.80
2022-08-24T05:03:48.678Z,4.75
2022-08-24T05:06:17.230Z,5.88
2022-08-24T05:08:44.104Z,4.35
2022-08-24T05:11:10.673Z,4.97
2022-08-24T05:13:38.020Z,3.92
2022-08-24T05:16:10.381Z,3.20
2022-08-24T05:18:37.991Z,5.10
2022-08-24T05:21:09.967Z,4.20
2022-08-24T05:23:38.337Z,4.07
2022-08-24T05:26:06.044Z,4.95
2022-08-24T05:28:34.029Z,7.60
2022-08-24T05:31:10.546Z,3.15
2022-08-24T05:33:37.220Z,4.40
2022-08-24T05:36:06.546Z,10.23
2022-08-24T05:38:33.518Z,4.40
2022-08-24T05:41:04.850Z,2.88
2022-08-24T05:43:31.552Z,4.60
2022-08-24T05:45:58.066Z,4.70
2022-08-24T05:48:24.699Z,4.13
2022-08-24T05:50:56.491Z,2.88
2022-08-24T05:53:23.472Z,4.78
2022-08-24T05:55:50.644Z,3.55
2022-08-24T05:58:23.073Z,3.53
2022-08-24T06:00:57.735Z,2.25
2022-08-24T06:03:24.256Z,2.05
2022-08-24T06:05:53.008Z,3.17
2022-08-24T06:08:19.730Z,5.53
2022-08-24T06:10:50.181Z,3.05
2022-08-24T06:13:17.150Z,2.85
2022-08-24T06:15:59.385Z,1.95
2022-08-24T06:18:31.174Z,3.40
2022-08-24T06:20:58.120Z,3.75
2022-08-24T06:23:25.230Z,2.83
2022-08-24T06:26:15.096Z,2.75
2022-08-24T06:28:42.587Z,3.75
2022-08-24T06:31:09.426Z,2.53
2022-08-24T06:33:36.099Z,2.95
2022-08-24T06:36:03.005Z,3.08
2022-08-24T06:38:30.634Z,3.50
2022-08-24T06:40:57.915Z,3.97
2022-08-24T06:43:24.643Z,3.90
2022-08-24T06:45:52.591Z,2.85
2022-08-24T06:48:19.423Z,3.90
2022-08-24T06:50:47.099Z,3.60
2022-08-24T06:53:15.184Z,2.38
2022-08-24T06:55:53.126Z,3.92
2022-08-24T06:58:20.930Z,6.50
2022-08-24T07:00:48.549Z,5.00
2022-08-24T07:03:17.149Z,3.78
2022-08-24T07:05:58.229Z,4.43
2022-08-24T07:08:24.939Z,4.53
2022-08-24T07:10:51.630Z,4.32
2022-08-24T07:13:18.272Z,3.17
2022-08-24T07:15:45.589Z,2.95
2022-08-24T07:18:16.129Z,5.97
2022-08-24T07:20:42.961Z,3.50
2022-08-24T07:23:12.423Z,3.40
2022-08-24T07:25:39.176Z,2.97
2022-08-24T07:28:10.229Z,5.25
2022-08-24T07:30:38.241Z,3.45
2022-08-24T07:33:05.065Z,4.05
2022-08-24T07:35:34.832Z,3.08
2022-08-24T07:38:01.582Z,3.00
2022-08-24T07:40:30.135Z,4.35
2022-08-24T07:42:58.273Z,5.70
2022-08-24T07:45:26.871Z,3.22
2022-08-24T07:47:56.097Z,3.03
2022-08-24T07:50:22.958Z,2.40
2022-08-24T07:52:49.518Z,3.45
2022-08-24T07:55:16.272Z,2.38
2022-08-24T07:57:45.126Z,2.78
2022-08-24T08:00:15.166Z,1.63
2022-08-24T08:02:45.807Z,2.28
2022-08-24T08:05:14.918Z,5.05
2022-08-24T08:07:41.814Z,3.85
2022-08-24T08:10:10.128Z,1.70
2022-08-24T08:12:36.753Z,2.58
2022-08-24T08:15:05.087Z,2.85
2022-08-24T08:17:31.918Z,2.75
2022-08-24T08:19:58.445Z,1.40
2022-08-24T08:22:43.769Z,3.47
2022-08-24T08:25:10.341Z,1.23
2022-08-24T08:27:37.059Z,2.13
2022-08-24T08:30:07.455Z,1.65
2022-08-24T08:32:34.062Z,1.70
2022-08-24T08:35:02.341Z,1.88
2022-08-24T08:37:29.719Z,1.83
2022-08-24T08:39:56.416Z,0.90
2022-08-24T08:42:28.598Z,1.48
2022-08-24T08:45:04.782Z,2.88
2022-08-24T08:48:08.872Z,1.00
2022-08-24T08:50:53.488Z,1.10
2022-08-24T08:53:45.395Z,1.15
2022-08-24T08:56:26.062Z,0.80
2022-08-24T08:59:17.472Z,1.17
2022-08-24T09:01:53.109Z,2.42
2022-08-24T09:04:41.403Z,1.35
2022-08-24T09:07:22.499Z,2.03
2022-08-24T09:10:08.421Z,2.50
2022-08-24T09:12:47.336Z,1.98
2022-08-24T09:15:33.838Z,2.80
2022-08-24T09:18:03.565Z,1.50
2022-08-24T09:21:22.744Z,4.63
2022-08-24T09:23:55.261Z,7.75
2022-08-24T09:26:29.059Z,6.45
2022-08-24T09:29:10.910Z,6.10
2022-08-24T09:31:58.259Z,6.00
2022-08-24T09:34:34.843Z,4.70
2022-08-24T09:37:04.287Z,6.90
2022-08-24T09:39:45.478Z,8.60
2022-08-24T09:42:30.671Z,5.93
2022-08-24T09:45:22.275Z,8.60
2022-08-24T09:48:36.727Z,4.65
2022-08-24T09:51:41.235Z,4.57
2022-08-24T09:54:30.998Z,3.78
2022-08-24T09:57:44.097Z,3.85
2022-08-24T10:00:15.259Z,4.03
2022-08-24T10:03:00.165Z,2.67
2022-08-24T10:06:04.784Z,3.83
2022-08-24T10:08:53.068Z,2.45
2022-08-24T10:11:49.791Z,1.83
2022-08-24T10:14:45.255Z,2.88
2022-08-24T10:17:25.420Z,1.65
2022-08-24T10:23:03.439Z,1.20
2022-08-24T10:25:34.674Z,1.40
2022-08-24T10:28:24.449Z,1.25
2022-08-24T10:31:04.709Z,3.50
2022-08-24T10:33:38.267Z,2.17
2022-08-24T10:36:10.891Z,1.75
2022-08-24T10:39:20.601Z,0.85
2022-08-24T10:42:07.135Z,1.40
2022-08-24T10:44:47.843Z,1.10
2022-08-24T10:47:23.647Z,2.00
2022-08-24T10:50:15.130Z,0.88
2022-08-24T10:53:12.077Z,1.48
2022-08-24T10:55:39.401Z,0.70
2022-08-24T10:58:18.012Z,1.30
2022-08-24T11:00:44.993Z,2.50
2022-08-24T11:03:19.809Z,1.55
2022-08-24T11:05:55.133Z,1.40
2022-08-24T11:08:28.500Z,3.72
2022-08-24T11:11:22.092Z,2.38
2022-08-24T11:14:00.939Z,1.25
2022-08-24T11:16:42.968Z,1.20
2022-08-24T11:19:15.322Z,1.48
2022-08-24T11:21:54.733Z,0.98
2022-08-24T11:24:21.173Z,1.27
2022-08-24T11:26:53.707Z,1.20
2022-08-24T11:29:27.340Z,0.93
2022-08-24T11:31:54.094Z,1.20
2022-08-24T11:34:37.917Z,1.27
2022-08-24T11:37:05.284Z,2.95
2022-08-24T11:39:36.745Z,0.85
2022-08-24T11:42:15.210Z,1.40
2022-08-24T11:44:49.877Z,1.10
2022-08-24T11:47:26.089Z,1.95
2022-08-24T11:49:58.878Z,1.20
2022-08-24T11:53:12.273Z,0.80
2022-08-24T11:55:51.630Z,0.60
2022-08-24T11:58:33.083Z,1.00
2022-08-24T12:01:14.654Z,1.27
2022-08-24T12:04:05.934Z,1.27
2022-08-24T12:06:56.176Z,2.72
2022-08-24T12:10:24.230Z,1.00
2022-08-24T12:13:05.987Z,2.05
2022-08-24T12:15:57.087Z,1.42
2022-08-24T12:18:45.670Z,0.85
2022-08-24T12:21:16.806Z,2.08
2022-08-24T12:23:50.603Z,1.55
2022-08-24T12:26:23.156Z,1.27
2022-08-24T12:28:54.700Z,1.27
2022-08-24T12:31:29.806Z,1.17
2022-08-24T12:34:02.042Z,1.52
2022-08-24T12:36:38.665Z,2.58
2022-08-24T12:39:12.144Z,1.15
2022-08-24T12:42:17.175Z,1.52
2022-08-24T12:45:00.427Z,2.13
2022-08-24T12:48:08.306Z,0.75
2022-08-24T12:50:59.600Z,1.20
2022-08-24T12:53:45.525Z,1.15
2022-08-24T12:56:22.712Z,1.27
2022-08-24T12:58:56.113Z,1.08
2022-08-24T13:01:29.387Z,1.15
2022-08-24T13:04:28.154Z,1.27
2022-08-24T13:07:27.652Z,1.25
2022-08-24T13:10:00.237Z,1.15
2022-08-24T13:12:41.758Z,1.95
2022-08-24T13:15:23.750Z,1.35
2022-08-24T13:18:09.160Z,1.83
2022-08-24T13:20:38.961Z,1.23
2022-08-24T13:23:11.446Z,1.05
2022-08-24T13:25:38.395Z,1.77
2022-08-24T13:28:09.304Z,0.90
2022-08-24T13:31:06.513Z,0.80
2022-08-24T13:33:55.103Z,1.08
2022-08-24T13:36:44.824Z,1.30
2022-08-24T13:39:23.256Z,1.15
2022-08-24T13:42:07.234Z,0.90
2022-08-24T13:44:58.738Z,1.63
2022-08-24T13:47:46.092Z,1.55
2022-08-24T13:50:29.862Z,0.93
2022-08-24T13:53:17.848Z,1.23
2022-08-24T13:55:51.023Z,1.15
2022-08-24T13:58:36.131Z,0.90
2022-08-24T14:01:30.690Z,0.85
2022-08-24T14:04:15.638Z,1.10
2022-08-24T14:07:00.515Z,1.60
2022-08-24T14:09:48.410Z,1.13
2022-08-24T14:12:41.969Z,0.80
2022-08-24T14:15:26.001Z,1.00
2022-08-24T14:18:14.683Z,1.58
2022-08-24T14:21:11.013Z,1.02
2022-08-24T14:23:46.953Z,0.95
2022-08-24T14:26:36.781Z,1.40
2022-08-24T14:29:15.332Z,1.50
2022-08-24T14:32:12.662Z,0.80
2022-08-24T14:35:30.800Z,1.95
2022-08-24T14:38:25.237Z,1.13
2022-08-24T14:41:10.209Z,1.10
2022-08-24T14:44:07.726Z,0.80
2022-08-24T14:46:38.631Z,2.03
2022-08-24T14:49:44.998Z,2.25
2022-08-24T14:52:30.623Z,3.58
2022-08-24T14:55:25.057Z,2.28
2022-08-24T14:58:34.650Z,1.85
2022-08-24T15:01:25.065Z,2.75
2022-08-24T15:04:37.200Z,3.17
2022-08-24T15:07:35.053Z,3.88
2022-08-24T15:10:11.096Z,4.03
2022-08-24T15:13:03.778Z,5.88
2022-08-24T15:15:54.984Z,5.32
2022-08-24T15:18:38.891Z,2.90
2022-08-24T15:21:11.992Z,2.65
2022-08-24T15:23:49.364Z,3.42
2022-08-24T15:26:32.915Z,2.15
2022-08-24T15:28:59.735Z,3.15
2022-08-24T15:31:29.084Z,3.45
2022-08-24T15:34:02.120Z,2.70
2022-08-24T15:36:33.037Z,5.05
2022-08-24T15:39:01.659Z,3.53
2022-08-24T15:41:32.341Z,3.22
2022-08-24T15:44:05.369Z,3.22
2022-08-24T15:46:37.215Z,2.15
2022-08-24T15:49:13.722Z,1.67
2022-08-24T15:52:02.074Z,2.70
2022-08-24T15:54:56.372Z,1.55
2022-08-24T15:57:29.962Z,2.10
2022-08-24T16:00:54.267Z,1.50
2022-08-24T16:03:26.915Z,2.65
2022-08-24T16:05:56.494Z,2.80
2022-08-24T16:08:23.957Z,1.45
2022-08-24T16:10:56.657Z,1.88
2022-08-24T16:13:32.255Z,1.83
2022-08-24T16:16:09.011Z,1.23
2022-08-24T16:18:44.560Z,2.10
2022-08-24T16:21:33.889Z,1.20
2022-08-24T16:24:22.437Z,1.63
2022-08-24T16:26:49.283Z,1.13
2022-08-24T16:29:36.333Z,1.20
2022-08-24T16:32:31.478Z,1.63
2022-08-24T16:35:19.125Z,2.00
2022-08-24T16:37:45.713Z,1.25
2022-08-24T16:40:12.620Z,1.90
2022-08-24T16:42:40.056Z,1.17
2022-08-24T16:45:11.240Z,1.10
2022-08-24T16:47:38.102Z,1.35
2022-08-24T16:50:06.135Z,1.33
2022-08-24T16:52:32.909Z,1.00
2022-08-24T16:55:01.469Z,1.25
2022-08-24T16:57:31.006Z,1.58
2022-08-24T16:59:58.079Z,1.08
2022-08-24T17:02:25.936Z,2.72
2022-08-24T17:04:54.482Z,1.27
2022-08-24T17:07:25.109Z,1.67
2022-08-24T17:09:52.267Z,1.20
2022-08-24T17:12:19.312Z,1.90
2022-08-24T17:14:45.962Z,1.20
2022-08-24T17:17:15.668Z,1.27
2022-08-24T17:19:43.885Z,1.65
2022-08-24T17:22:15.683Z,1.33
2022-08-24T17:24:43.391Z,1.35
2022-08-24T17:27:10.488Z,1.35
2022-08-24T17:29:37.221Z,1.08
2022-08-24T17:32:05.274Z,1.77
2022-08-24T17:34:32.405Z,2.65
2022-08-24T17:37:00.124Z,1.13
2022-08-24T17:39:27.401Z,1.60
2022-08-24T17:41:55.911Z,1.40
2022-08-24T17:44:26.169Z,1.15
2022-08-24T17:46:55.623Z,1.85
2022-08-24T17:49:22.379Z,1.92
2022-08-24T17:51:49.703Z,1.42
2022-08-24T17:54:17.721Z,5.30
2022-08-24T17:56:46.519Z,1.00
2022-08-24T17:59:23.640Z,1.33
2022-08-24T18:01:56.174Z,1.75
2022-08-24T18:04:27.480Z,1.30
2022-08-24T18:06:57.167Z,1.42
2022-08-24T18:09:37.250Z,1.00
2022-08-24T18:12:05.309Z,2.38
2022-08-24T18:14:32.604Z,1.70
2022-08-24T18:17:02.485Z,1.30
2022-08-24T18:19:29.156Z,1.30
2022-08-24T18:21:55.725Z,1.30
2022-08-24T18:24:22.978Z,1.17
2022-08-24T18:26:49.717Z,1.38
2022-08-24T18:29:20.864Z,1.02
2022-08-24T18:31:48.321Z,1.30
2022-08-24T18:34:21.772Z,1.65
2022-08-24T18:36:48.693Z,1.00
2022-08-24T18:39:15.268Z,1.77
2022-08-24T18:41:44.321Z,1.73
2022-08-24T18:44:19.744Z,1.60
2022-08-24T18:46:47.813Z,1.33
2022-08-24T18:49:15.546Z,1.98
2022-08-24T18:51:43.004Z,1.13
2022-08-24T18:54:16.648Z,1.13
2022-08-24T18:56:44.268Z,1.20
2022-08-24T18:59:14.457Z,1.42
2022-08-24T19:02:01.803Z,1.83
2022-08-24T19:04:33.511Z,1.33
2022-08-24T19:07:00.741Z,1.67
2022-08-24T19:09:30.757Z,1.73
2022-08-24T19:12:00.539Z,1.20
2022-08-24T19:14:27.084Z,1.30
2022-08-24T19:16:53.625Z,1.40
2022-08-24T19:19:22.203Z,1.40
2022-08-24T19:21:49.461Z,1.20
2022-08-24T19:24:19.312Z,1.50
2022-08-24T19:26:45.891Z,1.63
2022-08-24T19:29:12.523Z,2.28
2022-08-24T19:31:39.088Z,1.95
2022-08-24T19:34:06.755Z,1.45
2022-08-24T19:36:33.302Z,1.70
2022-08-24T19:38:59.993Z,1.58
2022-08-24T19:41:36.504Z,1.45
2022-08-24T19:44:27.368Z,1.65
2022-08-24T19:46:55.768Z,1.55
2022-08-24T19:49:22.841Z,2.75
2022-08-24T19:51:50.364Z,1.40
2022-08-24T19:54:17.198Z,1.92
2022-08-24T19:56:43.775Z,2.03
2022-08-24T19:59:38.341Z,1.70
2022-08-24T20:02:05.288Z,1.60
2022-08-24T20:04:31.806Z,1.33
2022-08-24T20:06:58.374Z,1.77
2022-08-24T20:09:25.024Z,1.63
2022-08-24T20:11:51.567Z,1.33
2022-08-24T20:14:18.211Z,1.65
2022-08-24T20:16:45.100Z,3.95
2022-08-24T20:19:12.200Z,3.47
2022-08-24T20:21:38.914Z,3.72
2022-08-24T20:24:06.388Z,5.22
2022-08-24T20:26:40.455Z,2.95
2022-08-24T20:29:07.256Z,4.75
2022-08-24T20:31:34.181Z,4.68
2022-08-24T20:34:01.053Z,2.90
2022-08-24T20:36:34.387Z,2.28
2022-08-24T20:39:02.665Z,2.03
2022-08-24T20:41:30.043Z,2.67
2022-08-24T20:43:57.290Z,3.40
2022-08-24T20:46:27.845Z,1.95
2022-08-24T20:48:56.625Z,2.17
2022-08-24T20:51:24.652Z,3.97
2022-08-24T20:53:51.213Z,2.90
2022-08-24T20:56:31.422Z,3.63
2022-08-24T20:59:02.729Z,2.55
2022-08-24T21:01:30.436Z,2.03
2022-08-24T21:04:00.336Z,2.50
2022-08-24T21:06:30.040Z,1.85
2022-08-24T21:08:56.839Z,2.33
2022-08-24T21:11:23.508Z,1.70
2022-08-24T21:13:50.349Z,2.13
2022-08-24T21:16:17.155Z,2.63
2022-08-24T21:18:44.099Z,1.85
2022-08-24T21:21:10.733Z,1.65
2022-08-24T21:23:37.241Z,2.30
2022-08-24T21:26:08.111Z,3.17
2022-08-24T21:28:36.321Z,1.65
2022-08-24T21:31:06.141Z,1.55
2022-08-24T21:33:52.258Z,1.65
2022-08-24T21:36:23.530Z,1.70
2022-08-24T21:38:53.514Z,1.92
2022-08-24T21:41:20.269Z,2.05
2022-08-24T21:43:46.770Z,1.58
2022-08-24T21:46:13.604Z,1.50
2022-08-24T21:48:40.218Z,1.67
2022-08-24T21:51:07.093Z,2.30
2022-08-24T21:53:33.675Z,1.60
2022-08-24T21:56:01.879Z,1.40
2022-08-24T21:58:29.344Z,1.50
2022-08-24T22:00:59.008Z,1.38
2022-08-24T22:03:36.988Z,1.45
2022-08-24T22:06:07.877Z,1.52
2022-08-24T22:08:35.335Z,1.60
2022-08-24T22:11:09.690Z,1.67
2022-08-24T22:13:36.931Z,1.30
2022-08-24T22:16:04.218Z,1.80
2022-08-24T22:18:31.168Z,1.35
2022-08-24T22:20:57.884Z,1.42
2022-08-24T22:23:24.457Z,1.38
2022-08-24T22:25:52.455Z,1.65
2022-08-24T22:28:20.282Z,1.38
2022-08-24T22:30:48.818Z,1.30
2022-08-24T22:33:16.505Z,1.60
2022-08-24T22:35:45.386Z,1.35
2022-08-24T22:38:12.692Z,1.37
2022-08-24T22:40:39.493Z,1.65
2022-08-24T22:43:06.165Z,1.13
2022-08-24T22:45:32.692Z,1.40
2022-08-24T22:47:59.302Z,0.98
2022-08-24T22:50:26.039Z,1.00
2022-08-24T22:52:53.787Z,1.40
2022-08-24T22:55:22.745Z,1.25
2022-08-24T22:57:51.160Z,1.60
2022-08-24T23:00:18.723Z,2.28
2022-08-24T23:02:45.259Z,1.40
2022-08-24T23:05:12.005Z,1.40
2022-08-24T23:07:38.542Z,2.17
2022-08-24T23:10:06.406Z,1.50
2022-08-24T23:12:33.061Z,1.15
2022-08-24T23:14:59.961Z,1.55
2022-08-24T23:17:26.566Z,1.17
2022-08-24T23:20:06.457Z,1.42
2022-08-24T23:22:39.442Z,1.48
2022-08-24T23:25:21.946Z,1.15
2022-08-24T23:30:28.931Z,1.60
2022-08-24T23:32:55.440Z,1.50
2022-08-24T23:35:21.957Z,1.70
2022-08-24T23:37:48.472Z,1.90
2022-08-24T23:40:15.139Z,1.27
2022-08-24T23:42:41.916Z,1.20
2022-08-24T23:45:11.653Z,1.38
2022-08-24T23:47:39.737Z,1.25
2022-08-24T23:50:11.397Z,1.58
2022-08-24T23:52:39.227Z,1.42
2022-08-24T23:55:20.355Z,1.38
2022-08-24T23:57:48.347Z,1.20
